Rechercher aéroport 
image banner adimage banner ad
image banner ad

SJXE - Sinal Construtora Heliport

Situé à Silva Jardim, Brazil

ICAO - SJXE, IATA -

Données fournies par Airmate  

Information générale

Coordonnées: S3°9'16" W41°52'5"
Élévation : 190 feet MSL.
Variation magnétique : -21° East
Voir autres Aéroports à Piauí

Données opérationnelles

Accessible au public
Heure actuelle UTC:
Heure actuelle locale:
METAR: SBPB 252045Z 08008KT 9999 FEW020 BKN100 27/25 Q1007
TAF: TAF SBPB 251500Z 2518/2606 05015KT 9999 SCT017 TX31/2519Z TN28/2606Z RMK PGY
Voir NOTAMs / SUP AIP / TFR affectant cet aéroport [VIEW]
Fréquences de communication: [VIEW]

Pistes:

Identifiant RWYQFULongueur (ft)Largeur (ft)SurfaceLDA (ft)
11393782ASPH
29393782ASPH

Coordonnées de l'aéroport

Adresse: Silva Jardim Brazil

Vue satellite de SJXE